createdAt,value
2022-11-22T00:01:23.259Z,98689.31
2022-11-22T00:03:51.740Z,98695.25
2022-11-22T00:06:20.242Z,98681.22
2022-11-22T00:08:48.488Z,98681.09
2022-11-22T00:11:17.001Z,98676.63
2022-11-22T00:13:45.520Z,98672.25
2022-11-22T00:16:13.772Z,98672.13
2022-11-22T00:18:43.339Z,98672.94
2022-11-22T00:21:11.629Z,98661.59
2022-11-22T00:23:39.925Z,98650.22
2022-11-22T00:26:11.870Z,98650.16
2022-11-22T00:28:40.673Z,98636.22
2022-11-22T00:31:09.177Z,98643.13
2022-11-22T00:33:37.755Z,98637.88
2022-11-22T00:36:07.788Z,98626.53
2022-11-22T00:38:36.349Z,98628.16
2022-11-22T00:41:05.021Z,98635.84
2022-11-22T00:43:33.620Z,98629.59
2022-11-22T00:46:02.221Z,98633.00
2022-11-22T00:48:30.794Z,98626.81
2022-11-22T00:50:59.502Z,98631.91
2022-11-22T00:53:29.111Z,98637.91
2022-11-22T00:55:57.634Z,98634.34
2022-11-22T00:58:26.347Z,98642.06
2022-11-22T01:00:56.766Z,98645.47
2022-11-22T01:03:25.667Z,98641.09
2022-11-22T01:05:54.181Z,98634.97
2022-11-22T01:08:22.507Z,98643.63
2022-11-22T01:10:57.756Z,98658.41
2022-11-22T01:13:26.844Z,98668.00
2022-11-22T01:15:59.262Z,98675.88
2022-11-22T01:18:27.831Z,98684.59
2022-11-22T01:20:56.677Z,98682.91
2022-11-22T01:23:25.391Z,98683.81
2022-11-22T01:25:55.077Z,98678.63
2022-11-22T01:28:23.423Z,98685.56
2022-11-22T01:30:52.416Z,98686.44
2022-11-22T01:33:21.567Z,98686.44
2022-11-22T01:35:50.088Z,98690.72
2022-11-22T01:38:18.774Z,98681.22
2022-11-22T01:40:47.338Z,98698.53
2022-11-22T01:43:20.670Z,98703.75
2022-11-22T01:45:52.179Z,98691.63
2022-11-22T01:48:33.230Z,98692.47
2022-11-22T01:51:08.294Z,98698.53
2022-11-22T01:53:39.969Z,98700.22
2022-11-22T01:56:13.587Z,98701.03
2022-11-22T01:58:46.278Z,98701.03
2022-11-22T02:01:14.625Z,98700.94
2022-11-22T02:03:47.291Z,98698.28
2022-11-22T02:06:16.581Z,98699.97
2022-11-22T02:08:54.964Z,98692.09
2022-11-22T02:11:24.116Z,98701.56
2022-11-22T02:13:54.679Z,98716.22
2022-11-22T02:16:23.814Z,98715.22
2022-11-22T02:18:52.072Z,98720.31
2022-11-22T02:21:20.711Z,98722.03
2022-11-22T02:23:57.628Z,98718.50
2022-11-22T02:26:30.183Z,98711.47
2022-11-22T02:29:05.105Z,98706.28
2022-11-22T02:31:40.431Z,98710.56
2022-11-22T02:34:09.222Z,98714.84
2022-11-22T02:36:43.471Z,98716.56
2022-11-22T02:39:14.487Z,98709.63
2022-11-22T02:41:45.514Z,98708.75
2022-11-22T02:44:14.576Z,98720.94
2022-11-22T02:46:49.927Z,98725.28
2022-11-22T02:49:20.327Z,98735.69
2022-11-22T02:51:48.889Z,98731.41
2022-11-22T02:54:17.742Z,98732.25
2022-11-22T02:56:47.704Z,98733.19
2022-11-22T02:59:16.253Z,98737.53
2022-11-22T03:01:47.555Z,98737.53
2022-11-22T03:04:24.825Z,98725.41
2022-11-22T03:06:56.107Z,98732.47
2022-11-22T03:09:25.274Z,98732.47
2022-11-22T03:11:55.363Z,98735.91
2022-11-22T03:14:24.204Z,98733.22
2022-11-22T03:16:52.539Z,98742.63
2022-11-22T03:19:21.142Z,98747.72
2022-11-22T03:21:49.714Z,98764.03
2022-11-22T03:24:19.939Z,98762.97
2022-11-22T03:26:49.638Z,98762.84
2022-11-22T03:29:19.487Z,98761.94
2022-11-22T03:31:48.049Z,98776.69
2022-11-22T03:34:17.190Z,98768.88
2022-11-22T03:36:45.726Z,98767.09
2022-11-22T03:39:14.147Z,98754.94
2022-11-22T03:41:42.539Z,98762.78
2022-11-22T03:44:11.025Z,98767.16
2022-11-22T03:46:40.583Z,98762.00
2022-11-22T03:49:08.853Z,98765.50
2022-11-22T03:51:37.398Z,98773.41
2022-11-22T03:54:06.069Z,98767.41
2022-11-22T03:56:34.322Z,98770.00
2022-11-22T03:59:02.896Z,98768.31
2022-11-22T04:01:31.385Z,98759.56
2022-11-22T04:04:01.247Z,98756.09
2022-11-22T04:06:29.919Z,98766.50
2022-11-22T04:08:58.411Z,98763.81
2022-11-22T04:11:26.982Z,98765.59
2022-11-22T04:14:13.622Z,98764.78
2022-11-22T04:16:42.208Z,98773.53
2022-11-22T04:19:11.959Z,98777.06
2022-11-22T04:21:39.284Z,98785.78
2022-11-22T04:24:27.187Z,98782.38
2022-11-22T04:26:55.818Z,98794.69
2022-11-22T04:29:24.608Z,98787.81
2022-11-22T04:32:11.020Z,98796.56
2022-11-22T04:34:40.738Z,98791.47
2022-11-22T04:37:09.578Z,98798.50
2022-11-22T04:39:38.163Z,98799.50
2022-11-22T04:42:24.286Z,98808.19
2022-11-22T04:44:52.842Z,98818.69
2022-11-22T04:47:38.991Z,98810.88
2022-11-22T04:50:24.600Z,98809.16
2022-11-22T04:52:55.730Z,98806.56
2022-11-22T04:55:24.570Z,98811.72
2022-11-22T04:57:57.752Z,98808.19
2022-11-22T05:00:28.663Z,98803.94
2022-11-22T05:02:57.230Z,98803.94
2022-11-22T05:05:27.592Z,98800.47
2022-11-22T05:07:56.723Z,98802.22
2022-11-22T05:10:27.071Z,98810.06
2022-11-22T05:12:56.496Z,98805.84
2022-11-22T05:15:25.181Z,98812.81
2022-11-22T05:17:53.737Z,98811.13
2022-11-22T05:20:22.234Z,98813.59
2022-11-22T05:23:09.221Z,98811.88
2022-11-22T05:25:37.800Z,98813.72
2022-11-22T05:28:06.401Z,98819.69
2022-11-22T05:30:35.029Z,98819.66
2022-11-22T05:33:03.539Z,98826.50
2022-11-22T05:35:32.005Z,98829.88
2022-11-22T05:38:01.587Z,98836.75
2022-11-22T05:40:30.281Z,98846.28
2022-11-22T05:42:59.532Z,98848.75
2022-11-22T05:45:28.142Z,98855.59
2022-11-22T05:47:57.518Z,98858.16
2022-11-22T05:50:26.254Z,98865.91
2022-11-22T05:53:03.320Z,98857.94
2022-11-22T05:55:32.169Z,98856.09
2022-11-22T05:58:01.275Z,98863.81
2022-11-22T06:00:30.303Z,98858.50
2022-11-22T06:03:02.461Z,98865.44
2022-11-22T06:05:31.393Z,98873.16
2022-11-22T06:08:01.370Z,98884.34
2022-11-22T06:10:31.042Z,98876.47
2022-11-22T06:12:59.765Z,98888.53
2022-11-22T06:15:28.322Z,98889.31
2022-11-22T06:17:56.877Z,98884.09
2022-11-22T06:20:25.398Z,98898.84
2022-11-22T06:22:54.037Z,98896.16
2022-11-22T06:25:22.586Z,98895.19
2022-11-22T06:27:52.207Z,98895.19
2022-11-22T06:30:20.834Z,98899.50
2022-11-22T06:32:49.310Z,98899.50
2022-11-22T06:35:17.650Z,98907.44
2022-11-22T06:37:45.822Z,98910.16
2022-11-22T06:40:15.407Z,98906.69
2022-11-22T06:42:43.927Z,98927.53
2022-11-22T06:45:13.767Z,98929.22
2022-11-22T06:47:42.251Z,98931.84
2022-11-22T06:50:11.232Z,98943.09
2022-11-22T06:52:39.817Z,98943.91
2022-11-22T06:55:34.520Z,98947.34
2022-11-22T06:57:57.369Z,98958.59
2022-11-22T07:00:26.956Z,98952.44
2022-11-22T07:02:55.506Z,98951.53
2022-11-22T07:05:25.932Z,98957.50
2022-11-22T07:07:57.825Z,98954.09
2022-11-22T07:10:31.506Z,98957.50
2022-11-22T07:13:00.026Z,98967.06
2022-11-22T07:15:29.822Z,98965.38
2022-11-22T07:17:58.514Z,98966.28
2022-11-22T07:20:27.046Z,98959.25
2022-11-22T07:22:55.539Z,98968.78
2022-11-22T07:25:24.178Z,98959.19
2022-11-22T07:27:53.560Z,98970.47
2022-11-22T07:30:22.294Z,98962.66
2022-11-22T07:32:51.885Z,98975.56
2022-11-22T07:35:20.410Z,98973.03
2022-11-22T07:37:48.683Z,98976.41
2022-11-22T07:40:17.736Z,98981.59
2022-11-22T07:42:46.201Z,98979.81
2022-11-22T07:45:14.788Z,98982.34
2022-11-22T07:47:43.299Z,98992.69
2022-11-22T07:50:13.108Z,99003.88
2022-11-22T07:52:41.298Z,99018.66
2022-11-22T07:55:14.275Z,99011.56
2022-11-22T07:57:43.305Z,99015.03
2022-11-22T08:00:14.393Z,99003.63
2022-11-22T08:02:43.056Z,99012.16
2022-11-22T08:05:12.612Z,99011.25
2022-11-22T08:07:46.319Z,99018.19
2022-11-22T08:10:15.312Z,99026.78
2022-11-22T08:12:44.217Z,99026.78
2022-11-22T08:15:14.041Z,99031.13
2022-11-22T08:17:42.479Z,99033.72
2022-11-22T08:20:13.168Z,99044.03
2022-11-22T08:22:42.300Z,99050.94
2022-11-22T08:25:13.378Z,99041.44
2022-11-22T08:27:42.111Z,99043.97
2022-11-22T08:30:12.074Z,99052.63
2022-11-22T08:32:40.908Z,99056.91
2022-11-22T08:35:10.273Z,99057.63
2022-11-22T08:37:39.867Z,99046.28
2022-11-22T08:40:10.066Z,99043.56
2022-11-22T08:42:38.349Z,99049.56
2022-11-22T08:45:08.103Z,99040.75
2022-11-22T08:47:36.697Z,99045.00
2022-11-22T08:50:05.879Z,99042.34
2022-11-22T08:52:35.820Z,99042.28
2022-11-22T08:55:06.378Z,99027.41
2022-11-22T08:57:34.931Z,99030.81
2022-11-22T09:00:03.732Z,99042.81
2022-11-22T09:02:31.972Z,99043.56
2022-11-22T09:05:00.461Z,99054.72
2022-11-22T09:10:19.813Z,99048.41
2022-11-22T09:12:48.643Z,99052.66
2022-11-22T09:15:17.623Z,99049.88
2022-11-22T09:17:46.162Z,99054.75
2022-11-22T09:20:14.752Z,99050.22
2022-11-22T09:22:43.234Z,99037.72
2022-11-22T09:25:12.125Z,99042.69
2022-11-22T09:27:41.696Z,99042.56
2022-11-22T09:30:11.460Z,99047.66
2022-11-22T09:32:39.965Z,99051.03
2022-11-22T09:35:08.760Z,99055.38
2022-11-22T09:37:37.243Z,99045.69
2022-11-22T09:40:06.919Z,99041.31
2022-11-22T09:43:07.960Z,99050.00
2022-11-22T09:46:08.712Z,99046.34
2022-11-22T09:49:06.720Z,99037.66
2022-11-22T09:51:42.731Z,99034.88
2022-11-22T09:54:16.434Z,99042.56
2022-11-22T09:56:46.244Z,99030.34
2022-11-22T09:59:24.659Z,99026.88
2022-11-22T10:02:03.423Z,99034.88
2022-11-22T10:04:47.666Z,99024.50
2022-11-22T10:07:20.374Z,99015.91
2022-11-22T10:09:55.943Z,99017.72
2022-11-22T10:12:30.567Z,99014.31
2022-11-22T10:15:07.834Z,99009.09
2022-11-22T10:17:53.594Z,99014.31
2022-11-22T10:20:24.304Z,99026.50
2022-11-22T10:22:53.309Z,99018.66
2022-11-22T10:25:28.544Z,99019.53
2022-11-22T10:28:01.759Z,99021.25
2022-11-22T10:30:40.385Z,99019.50
2022-11-22T10:33:18.103Z,99026.34
2022-11-22T10:36:04.630Z,99041.13
2022-11-22T10:38:59.792Z,99032.34
2022-11-22T10:41:44.992Z,99031.47
2022-11-22T10:44:29.612Z,99025.31
2022-11-22T10:47:11.971Z,99031.31
2022-11-22T10:49:53.662Z,99016.34
2022-11-22T10:52:35.244Z,99036.28
2022-11-22T10:55:22.217Z,99022.41
2022-11-22T10:58:01.533Z,99032.88
2022-11-22T11:00:32.871Z,99019.69
2022-11-22T11:03:14.820Z,99013.41
2022-11-22T11:06:21.014Z,99006.19
2022-11-22T11:09:23.261Z,99013.00
2022-11-22T11:11:32.003Z,99011.91
2022-11-22T11:14:05.639Z,99016.91
2022-11-22T11:16:38.119Z,99020.31
2022-11-22T11:19:18.119Z,99029.84
2022-11-22T11:21:46.701Z,99016.63
2022-11-22T11:24:17.856Z,99022.66
2022-11-22T11:26:55.202Z,99000.75
2022-11-22T11:29:39.454Z,99012.91
2022-11-22T11:32:14.432Z,99008.50
2022-11-22T11:34:53.763Z,99015.59
2022-11-22T11:37:28.451Z,99019.06
2022-11-22T11:39:56.558Z,98996.78
2022-11-22T11:42:29.262Z,98999.13
2022-11-22T11:45:28.339Z,99009.50
2022-11-22T11:47:56.926Z,98999.47
2022-11-22T11:50:29.928Z,99001.69
2022-11-22T11:53:05.440Z,98989.00
2022-11-22T11:55:36.904Z,98997.22
2022-11-22T11:58:17.794Z,98991.59
2022-11-22T12:00:46.847Z,98996.69
2022-11-22T12:03:20.219Z,99001.94
2022-11-22T12:06:09.834Z,98979.22
2022-11-22T12:08:38.378Z,98999.41
2022-11-22T12:11:14.015Z,98998.63
2022-11-22T12:14:12.359Z,98989.78
2022-11-22T12:16:38.723Z,98972.16
2022-11-22T12:19:25.038Z,98985.19
2022-11-22T12:22:06.016Z,98970.53
2022-11-22T12:24:57.009Z,98976.53
2022-11-22T12:27:29.683Z,98976.59
2022-11-22T12:29:59.860Z,98975.00
2022-11-22T12:32:36.822Z,98973.38
2022-11-22T12:35:12.459Z,98969.97
2022-11-22T12:37:49.461Z,98971.75
2022-11-22T12:40:24.542Z,98970.91
2022-11-22T12:42:58.587Z,98971.88
2022-11-22T12:45:31.956Z,98975.69
2022-11-22T12:48:06.422Z,98970.06
2022-11-22T12:50:41.340Z,98965.34
2022-11-22T12:53:15.180Z,98971.59
2022-11-22T12:55:52.263Z,98964.69
2022-11-22T12:58:28.753Z,98961.00
2022-11-22T13:01:10.387Z,98963.34
2022-11-22T13:03:46.777Z,98950.69
2022-11-22T13:06:17.875Z,98953.09
2022-11-22T13:09:03.211Z,98948.47
2022-11-22T13:11:38.328Z,98957.88
2022-11-22T13:14:15.178Z,98958.66
2022-11-22T13:16:48.015Z,98956.03
2022-11-22T13:19:18.394Z,98952.63
2022-11-22T13:22:06.630Z,98951.09
2022-11-22T13:24:56.158Z,98958.31
2022-11-22T13:27:30.686Z,98953.22
2022-11-22T13:30:01.967Z,98962.16
2022-11-22T13:32:33.681Z,98966.69
2022-11-22T13:35:08.050Z,98994.88
2022-11-22T13:37:39.983Z,98959.47
2022-11-22T13:40:28.365Z,98969.50
2022-11-22T13:43:51.409Z,98971.75
2022-11-22T13:46:56.205Z,98992.09
2022-11-22T13:49:41.255Z,98972.94
2022-11-22T13:52:52.522Z,98973.13
2022-11-22T13:55:33.858Z,98972.34
2022-11-22T13:58:51.171Z,98972.56
2022-11-22T14:01:59.092Z,98957.88
2022-11-22T14:04:40.802Z,98955.31
2022-11-22T14:07:38.491Z,98956.38
2022-11-22T14:10:32.511Z,98975.66
2022-11-22T14:13:37.466Z,98945.25
2022-11-22T14:16:19.991Z,98959.16
2022-11-22T14:19:10.638Z,98968.88
2022-11-22T14:21:51.964Z,98976.75
2022-11-22T14:24:36.882Z,98985.56
2022-11-22T14:27:26.828Z,98977.88
2022-11-22T14:30:18.193Z,98987.56
2022-11-22T14:33:00.399Z,98978.13
2022-11-22T14:35:36.848Z,98969.53
2022-11-22T14:38:32.106Z,98996.69
2022-11-22T14:41:43.116Z,98978.53
2022-11-22T14:44:18.203Z,98982.06
2022-11-22T14:46:54.497Z,98971.72
2022-11-22T14:49:42.006Z,99001.63
2022-11-22T14:52:26.637Z,98986.19
2022-11-22T14:54:59.736Z,98988.88
2022-11-22T14:57:32.101Z,99001.88
2022-11-22T15:00:19.719Z,99001.88
2022-11-22T15:03:46.527Z,98999.34
2022-11-22T15:09:11.061Z,99002.78
2022-11-22T15:09:56.100Z,99014.16
2022-11-22T15:12:56.434Z,98997.63
2022-11-22T15:59:44.056Z,99068.13
2022-11-22T16:02:17.818Z,99063.16
2022-11-22T16:06:05.400Z,99053.09
2022-11-22T16:07:43.282Z,99065.66
2022-11-22T16:10:22.000Z,99070.25
2022-11-22T16:12:51.470Z,99085.97
2022-11-22T16:15:30.590Z,99085.22
2022-11-22T16:18:09.626Z,99071.44
2022-11-22T16:20:41.595Z,99081.03
2022-11-22T16:23:26.934Z,99084.66
2022-11-22T16:26:00.013Z,99079.56
2022-11-22T16:28:32.915Z,99084.78
2022-11-22T16:31:05.221Z,99099.69
2022-11-22T16:33:34.040Z,99090.22
2022-11-22T16:36:05.751Z,99111.09
2022-11-22T16:38:33.997Z,99088.53
2022-11-22T16:41:02.984Z,99094.59
2022-11-22T16:43:36.151Z,99087.69
2022-11-22T16:46:04.969Z,99088.53
2022-11-22T16:48:33.701Z,99090.22
2022-11-22T16:51:08.009Z,99095.44
2022-11-22T16:53:42.286Z,99102.47
2022-11-22T16:56:20.259Z,99104.19
2022-11-22T16:58:50.372Z,99109.41
2022-11-22T17:01:22.098Z,99113.69
2022-11-22T17:03:54.223Z,99119.72
2022-11-22T17:06:26.002Z,99121.47
2022-11-22T17:08:57.406Z,99115.34
2022-11-22T17:11:30.338Z,99137.97
2022-11-22T17:13:59.106Z,99111.09
2022-11-22T17:16:27.666Z,99117.22
2022-11-22T17:18:55.963Z,99112.03
2022-11-22T17:21:32.931Z,99109.50
2022-11-22T17:24:08.179Z,99115.59
2022-11-22T17:26:36.805Z,99120.91
2022-11-22T17:29:06.651Z,99102.69
2022-11-22T17:31:37.494Z,99107.91
2022-11-22T17:34:05.769Z,99108.78
2022-11-22T17:36:37.119Z,99095.78
2022-11-22T17:39:09.445Z,99114.84
2022-11-22T17:41:38.155Z,99120.06
2022-11-22T17:44:07.016Z,99095.66
2022-11-22T17:46:38.193Z,99119.94
2022-11-22T17:49:09.066Z,99136.38
2022-11-22T17:51:41.472Z,99126.75
2022-11-22T17:54:09.930Z,99119.72
2022-11-22T17:56:38.152Z,99134.44
2022-11-22T17:59:06.978Z,99130.16
2022-11-22T18:01:36.770Z,99119.72
2022-11-22T18:04:05.400Z,99124.94
2022-11-22T18:06:33.637Z,99136.31
2022-11-22T18:09:03.353Z,99136.31
2022-11-22T18:11:31.850Z,99150.28
2022-11-22T18:14:00.359Z,99145.91
2022-11-22T18:16:29.982Z,99143.31
2022-11-22T18:18:59.039Z,99147.59
2022-11-22T18:21:29.693Z,99157.09
2022-11-22T18:23:58.900Z,99144.97
2022-11-22T18:26:39.353Z,99151.03
2022-11-22T18:31:58.857Z,99156.34
2022-11-22T18:34:27.511Z,99152.91
2022-11-22T18:37:01.562Z,99152.94
2022-11-22T18:39:32.929Z,99147.81
2022-11-22T18:42:02.980Z,99154.06
2022-11-22T18:44:31.548Z,99141.25
2022-11-22T18:47:00.096Z,99151.81
2022-11-22T18:49:29.368Z,99148.47
2022-11-22T18:51:58.307Z,99155.50
2022-11-22T18:54:27.246Z,99147.00
2022-11-22T18:56:55.444Z,99158.41
2022-11-22T18:59:25.031Z,99154.22
2022-11-22T19:01:53.572Z,99155.19
2022-11-22T19:04:22.080Z,99150.91
2022-11-22T19:06:51.348Z,99157.94
2022-11-22T19:09:19.857Z,99161.44
2022-11-22T19:11:48.347Z,99163.25
2022-11-22T19:14:17.127Z,99155.53
2022-11-22T19:16:46.675Z,99149.53
2022-11-22T19:19:15.317Z,99162.59
2022-11-22T19:21:43.824Z,99160.06
2022-11-22T19:24:12.594Z,99156.66
2022-11-22T19:26:41.187Z,99159.34
2022-11-22T19:29:09.821Z,99159.41
2022-11-22T19:31:38.310Z,99164.59
2022-11-22T19:34:07.899Z,99162.06
2022-11-22T19:36:37.609Z,99160.38
2022-11-22T19:39:07.152Z,99169.06
2022-11-22T19:41:35.538Z,99169.13
2022-11-22T19:44:04.498Z,99169.19
2022-11-22T19:46:33.026Z,99169.25
2022-11-22T19:49:02.347Z,99172.78
2022-11-22T19:51:32.876Z,99172.91
2022-11-22T19:54:03.074Z,99165.19
2022-11-22T19:56:33.787Z,99181.69
2022-11-22T19:59:05.056Z,99187.81
2022-11-22T20:01:35.472Z,99191.38
2022-11-22T20:04:07.015Z,99189.78
2022-11-22T20:06:37.696Z,99192.50
2022-11-22T20:09:10.582Z,99188.34
2022-11-22T20:11:40.046Z,99192.88
2022-11-22T20:14:09.367Z,99197.44
2022-11-22T20:16:41.142Z,99205.47
2022-11-22T20:19:10.588Z,99202.25
2022-11-22T20:21:41.959Z,99201.63
2022-11-22T20:24:10.862Z,99204.41
2022-11-22T20:26:39.075Z,99204.59
2022-11-22T20:29:09.428Z,99198.69
2022-11-22T20:31:38.491Z,99206.63
2022-11-22T20:34:07.016Z,99213.69
2022-11-22T20:36:36.140Z,99219.88
2022-11-22T20:39:11.255Z,99222.56
2022-11-22T20:41:40.722Z,99225.25
2022-11-22T20:44:12.092Z,99231.38
2022-11-22T20:46:41.282Z,99240.03
2022-11-22T20:49:09.512Z,99240.13
2022-11-22T20:51:39.725Z,99247.06
2022-11-22T20:54:10.753Z,99244.53
2022-11-22T20:56:39.318Z,99257.53
2022-11-22T20:59:07.684Z,99248.84
2022-11-22T21:01:36.191Z,99255.03
2022-11-22T21:04:04.850Z,99264.53
2022-11-22T21:06:34.955Z,99257.63
2022-11-22T21:09:03.614Z,99255.91
2022-11-22T21:11:33.164Z,99253.34
2022-11-22T21:14:01.408Z,99252.53
2022-11-22T21:16:31.354Z,99257.78
2022-11-22T21:19:01.931Z,99266.47
2022-11-22T21:21:32.252Z,99254.38
2022-11-22T21:24:02.349Z,99261.25
2022-11-22T21:26:33.096Z,99263.00
2022-11-22T21:29:03.269Z,99262.03
2022-11-22T21:31:31.570Z,99255.81
2022-11-22T21:33:59.762Z,99262.66
2022-11-22T21:36:28.292Z,99253.88
2022-11-22T21:38:56.771Z,99255.53
2022-11-22T21:41:39.852Z,99255.47
2022-11-22T21:44:11.535Z,99252.88
2022-11-22T21:46:40.584Z,99260.59
2022-11-22T21:49:09.235Z,99261.41
2022-11-22T21:51:37.949Z,99264.84
2022-11-22T21:54:06.845Z,99258.72
2022-11-22T21:56:35.545Z,99259.56
2022-11-22T21:59:03.871Z,99258.72
2022-11-22T22:01:33.928Z,99264.84
2022-11-22T22:04:03.020Z,99272.66
2022-11-22T22:06:31.682Z,99272.72
2022-11-22T22:09:00.787Z,99269.31
2022-11-22T22:11:29.287Z,99278.03
2022-11-22T22:13:58.858Z,99273.66
2022-11-22T22:16:27.433Z,99278.88
2022-11-22T22:18:57.020Z,99286.63
2022-11-22T22:21:25.542Z,99279.72
2022-11-22T22:23:54.390Z,99283.13
2022-11-22T22:26:22.882Z,99277.84
2022-11-22T22:28:52.922Z,99288.19
2022-11-22T22:31:23.545Z,99284.59
2022-11-22T22:33:54.832Z,99288.75
2022-11-22T22:36:26.791Z,99281.75
2022-11-22T22:38:55.991Z,99277.28
2022-11-22T22:41:24.461Z,99284.97
2022-11-22T22:43:53.029Z,99291.78
2022-11-22T22:46:24.680Z,99296.06
2022-11-22T22:48:56.085Z,99302.06
2022-11-22T22:51:32.883Z,99301.09
2022-11-22T22:54:02.146Z,99297.50
2022-11-22T22:56:32.189Z,99294.78
2022-11-22T22:59:01.576Z,99292.94
2022-11-22T23:01:32.129Z,99310.97
2022-11-22T23:04:02.168Z,99295.19
2022-11-22T23:06:34.308Z,99295.06
2022-11-22T23:09:04.073Z,99301.03
2022-11-22T23:11:51.358Z,99297.50
2022-11-22T23:14:21.534Z,99300.19
2022-11-22T23:16:54.562Z,99303.81
2022-11-22T23:19:26.298Z,99302.16
2022-11-22T23:21:56.210Z,99305.78
2022-11-22T23:24:24.740Z,99300.66
2022-11-22T23:26:53.255Z,99304.19
2022-11-22T23:29:21.511Z,99302.50
2022-11-22T23:31:49.989Z,99299.91
2022-11-22T23:34:18.549Z,99299.84
2022-11-22T23:36:47.082Z,99300.66
2022-11-22T23:39:16.849Z,99300.66
2022-11-22T23:41:45.946Z,99297.03
2022-11-22T23:44:14.518Z,99304.75
2022-11-22T23:46:43.103Z,99308.09
2022-11-22T23:49:13.046Z,99312.31
2022-11-22T23:51:41.407Z,99317.44
2022-11-22T23:54:10.742Z,99313.94
2022-11-22T23:56:40.302Z,99323.56
2022-11-22T23:59:08.735Z,99314.03
